createdAt,value
2018-09-30T00:00:52.250Z,97373.08
2018-09-30T00:03:20.535Z,97378.81
2018-09-30T00:05:48.955Z,97385.06
2018-09-30T00:08:17.326Z,97384.42
2018-09-30T00:10:45.567Z,97387.13
2018-09-30T00:13:13.855Z,97387.41
2018-09-30T00:15:42.170Z,97378.84
2018-09-30T00:18:10.449Z,97372.20
2018-09-30T00:20:38.876Z,97370.90
2018-09-30T00:23:07.580Z,97368.06
2018-09-30T00:25:41.321Z,97362.19
2018-09-30T00:28:09.669Z,97361.81
2018-09-30T00:30:37.987Z,97365.30
2018-09-30T00:33:06.343Z,97362.05
2018-09-30T00:35:34.667Z,97365.22
2018-09-30T00:38:03.307Z,97362.68
2018-09-30T00:40:31.719Z,97365.96
2018-09-30T00:43:00.035Z,97367.59
2018-09-30T00:45:28.563Z,97368.81
2018-09-30T00:47:57.107Z,97373.30
2018-09-30T00:50:25.423Z,97366.27
2018-09-30T00:52:53.801Z,97351.04
2018-09-30T00:55:22.145Z,97358.30
2018-09-30T00:57:50.558Z,97352.28
2018-09-30T01:00:18.939Z,97350.95
2018-09-30T01:02:47.256Z,97346.45
2018-09-30T01:05:15.618Z,97347.16
2018-09-30T01:07:43.971Z,97347.78
2018-09-30T01:10:12.284Z,97341.37
2018-09-30T01:12:40.635Z,97333.69
2018-09-30T01:15:09.467Z,97331.88
2018-09-30T01:17:37.903Z,97321.34
2018-09-30T01:20:06.239Z,97319.31
2018-09-30T01:22:34.614Z,97325.33
2018-09-30T01:25:02.950Z,97323.48
2018-09-30T01:27:31.319Z,97321.04
2018-09-30T01:29:59.686Z,97317.57
2018-09-30T01:32:28.095Z,97314.92
2018-09-30T01:34:56.427Z,97313.09
2018-09-30T01:37:24.794Z,97304.49
2018-09-30T01:39:53.211Z,97305.34
2018-09-30T01:42:21.531Z,97309.08
2018-09-30T01:44:49.930Z,97301.85
2018-09-30T01:47:18.311Z,97299.69
2018-09-30T01:49:47.202Z,97302.85
2018-09-30T01:52:26.890Z,97303.67
2018-09-30T01:54:55.223Z,97304.58
2018-09-30T01:57:24.657Z,97304.75
2018-09-30T01:59:53.047Z,97305.97
2018-09-30T02:02:21.391Z,97301.88
2018-09-30T02:04:49.742Z,97301.58
2018-09-30T02:07:18.075Z,97299.02
2018-09-30T02:09:46.409Z,97310.25
2018-09-30T02:12:14.739Z,97307.55
2018-09-30T02:14:43.659Z,97309.77
2018-09-30T02:17:11.971Z,97307.66
2018-09-30T02:19:40.331Z,97305.44
2018-09-30T02:22:08.643Z,97293.19
2018-09-30T02:24:36.988Z,97294.87
2018-09-30T02:27:05.296Z,97292.49
2018-09-30T02:29:33.691Z,97297.91
2018-09-30T02:32:02.211Z,97284.75
2018-09-30T02:34:30.564Z,97280.78
2018-09-30T02:36:59.409Z,97289.13
2018-09-30T02:39:27.732Z,97281.36
2018-09-30T02:41:56.075Z,97277.50
2018-09-30T02:44:24.875Z,97277.70
2018-09-30T02:46:53.392Z,97283.31
2018-09-30T02:49:21.723Z,97271.46
2018-09-30T02:51:50.064Z,97272.25
2018-09-30T02:54:18.416Z,97267.67
2018-09-30T02:56:46.795Z,97266.95
2018-09-30T02:59:15.144Z,97258.98
2018-09-30T03:01:43.455Z,97257.67
2018-09-30T03:04:11.836Z,97262.86
2018-09-30T03:06:45.339Z,97253.89
2018-09-30T03:09:17.055Z,97255.31
2018-09-30T03:11:45.772Z,97253.34
2018-09-30T03:14:15.350Z,97252.55
2018-09-30T03:16:45.435Z,97244.60
2018-09-30T03:19:14.352Z,97233.38
2018-09-30T03:21:42.700Z,97232.96
2018-09-30T03:24:11.712Z,97233.31
2018-09-30T03:26:40.680Z,97231.98
2018-09-30T03:29:09.051Z,97226.81
2018-09-30T03:31:37.491Z,97223.23
2018-09-30T03:34:05.837Z,97225.34
2018-09-30T03:36:34.168Z,97215.75
2018-09-30T03:39:03.099Z,97209.92
2018-09-30T03:41:31.439Z,97215.69
2018-09-30T03:43:59.835Z,97210.42
2018-09-30T03:46:28.164Z,97210.96
2018-09-30T03:48:56.479Z,97203.52
2018-09-30T03:51:25.887Z,97209.55
2018-09-30T03:53:54.182Z,97208.00
2018-09-30T03:56:22.572Z,97213.08
2018-09-30T03:58:50.895Z,97206.86
2018-09-30T04:01:19.257Z,97200.12
2018-09-30T04:03:47.579Z,97202.95
2018-09-30T04:06:15.962Z,97202.95
2018-09-30T04:08:44.299Z,97209.34
2018-09-30T04:11:12.691Z,97204.69
2018-09-30T04:13:41.083Z,97207.37
2018-09-30T04:16:09.447Z,97207.14
2018-09-30T04:18:37.905Z,97210.13
2018-09-30T04:21:06.292Z,97210.13
2018-09-30T04:23:34.604Z,97207.25
2018-09-30T04:26:02.996Z,97206.61
2018-09-30T04:28:31.294Z,97214.78
2018-09-30T04:30:59.631Z,97206.70
2018-09-30T04:33:27.947Z,97210.30
2018-09-30T04:35:56.459Z,97194.02
2018-09-30T04:38:24.795Z,97195.34
2018-09-30T04:40:53.127Z,97201.09
2018-09-30T04:43:21.463Z,97197.90
2018-09-30T04:45:49.859Z,97196.25
2018-09-30T04:48:18.672Z,97196.34
2018-09-30T04:50:47.039Z,97192.16
2018-09-30T04:53:15.383Z,97189.45
2018-09-30T04:55:43.755Z,97181.16
2018-09-30T04:58:12.068Z,97183.67
2018-09-30T05:00:40.480Z,97174.95
2018-09-30T05:03:08.811Z,97174.81
2018-09-30T05:05:37.241Z,97172.53
2018-09-30T05:08:05.595Z,97169.30
2018-09-30T05:10:33.962Z,97183.89
2018-09-30T05:13:02.280Z,97170.72
2018-09-30T05:15:30.611Z,97179.33
2018-09-30T05:17:58.945Z,97179.79
2018-09-30T05:20:27.403Z,97171.16
2018-09-30T05:22:55.747Z,97172.80
2018-09-30T05:25:24.063Z,97175.73
2018-09-30T05:27:52.431Z,97184.71
2018-09-30T05:30:20.812Z,97175.50
2018-09-30T05:32:49.179Z,97178.06
2018-09-30T05:35:17.591Z,97177.83
2018-09-30T05:37:45.947Z,97172.90
2018-09-30T05:40:14.715Z,97177.58
2018-09-30T05:42:43.047Z,97171.30
2018-09-30T05:45:11.431Z,97168.78
2018-09-30T05:47:39.826Z,97171.66
2018-09-30T05:50:08.195Z,97173.48
2018-09-30T05:52:36.653Z,97173.70
2018-09-30T05:55:05.227Z,97166.92
2018-09-30T05:57:33.598Z,97170.98
2018-09-30T06:00:01.959Z,97170.42
2018-09-30T06:02:30.326Z,97172.47
2018-09-30T06:04:58.658Z,97180.32
2018-09-30T06:07:27.027Z,97173.73
2018-09-30T06:09:55.339Z,97173.86
2018-09-30T06:12:23.672Z,97180.92
2018-09-30T06:14:52.011Z,97174.44
2018-09-30T06:17:20.436Z,97173.65
2018-09-30T06:19:48.835Z,97174.66
2018-09-30T06:22:17.188Z,97165.20
2018-09-30T06:24:45.579Z,97165.02
2018-09-30T06:27:14.312Z,97161.66
2018-09-30T06:29:42.772Z,97158.59
2018-09-30T06:32:11.195Z,97148.02
2018-09-30T06:34:39.470Z,97145.73
2018-09-30T06:37:07.880Z,97136.17
2018-09-30T06:39:36.219Z,97115.81
2018-09-30T06:42:04.586Z,97098.64
2018-09-30T06:44:32.919Z,97095.65
2018-09-30T06:47:01.276Z,97092.73
2018-09-30T06:49:29.647Z,97095.96
2018-09-30T06:51:58.014Z,97092.71
2018-09-30T06:54:26.386Z,97092.22
2018-09-30T06:56:54.755Z,97081.68
2018-09-30T06:59:23.133Z,97086.10
2018-09-30T07:01:51.467Z,97084.39
2018-09-30T07:04:19.799Z,97079.48
2018-09-30T07:06:48.170Z,97073.42
2018-09-30T07:09:16.491Z,97071.16
2018-09-30T07:11:44.807Z,97070.00
2018-09-30T07:14:13.156Z,97075.69
2018-09-30T07:16:41.592Z,97067.08
2018-09-30T07:19:09.950Z,97074.33
2018-09-30T07:21:38.455Z,97075.97
2018-09-30T07:24:07.204Z,97078.48
2018-09-30T07:26:36.076Z,97069.88
2018-09-30T07:29:04.447Z,97082.00
2018-09-30T07:31:32.989Z,97077.19
2018-09-30T07:34:01.347Z,97080.49
2018-09-30T07:36:29.667Z,97081.77
2018-09-30T07:38:58.063Z,97071.10
2018-09-30T07:41:26.467Z,97075.22
2018-09-30T07:43:54.839Z,97064.30
2018-09-30T07:46:23.171Z,97065.16
2018-09-30T07:48:51.535Z,97075.42
2018-09-30T07:51:19.883Z,97072.19
2018-09-30T07:53:48.299Z,97064.89
2018-09-30T07:56:16.628Z,97065.21
2018-09-30T07:58:45.196Z,97067.44
2018-09-30T08:01:13.511Z,97062.73
2018-09-30T08:03:42.091Z,97063.37
2018-09-30T08:06:10.415Z,97059.63
2018-09-30T08:08:38.778Z,97045.89
2018-09-30T08:11:07.262Z,97056.12
2018-09-30T08:13:36.079Z,97053.44
2018-09-30T08:16:04.714Z,97051.11
2018-09-30T08:18:33.071Z,97060.20
2018-09-30T08:21:01.443Z,97051.29
2018-09-30T08:23:30.007Z,97044.34
2018-09-30T08:25:58.359Z,97058.35
2018-09-30T08:28:26.911Z,97041.47
2018-09-30T08:30:55.251Z,97034.75
2018-09-30T08:33:23.591Z,97033.55
2018-09-30T08:35:57.195Z,97031.05
2018-09-30T08:38:34.177Z,97036.17
2018-09-30T08:41:08.539Z,97035.05
2018-09-30T08:43:38.931Z,97027.02
2018-09-30T08:46:07.955Z,97027.00
2018-09-30T08:48:36.335Z,97028.78
2018-09-30T08:51:04.659Z,97032.89
2018-09-30T08:53:32.999Z,97041.77
2018-09-30T08:56:01.426Z,97038.14
2018-09-30T08:58:30.333Z,97043.66
2018-09-30T09:00:58.668Z,97045.78
2018-09-30T09:03:27.178Z,97035.02
2018-09-30T09:05:55.549Z,97025.53
2018-09-30T09:08:23.875Z,97032.05
2018-09-30T09:10:52.218Z,97029.22
2018-09-30T09:13:20.570Z,97031.31
2018-09-30T09:15:48.927Z,97029.47
2018-09-30T09:18:17.263Z,97026.30
2018-09-30T09:20:45.648Z,97029.25
2018-09-30T09:23:13.964Z,97030.47
2018-09-30T09:25:42.607Z,97031.38
2018-09-30T09:28:11.458Z,97018.44
2018-09-30T09:30:39.795Z,97019.05
2018-09-30T09:33:08.179Z,97013.13
2018-09-30T09:35:36.528Z,97008.96
2018-09-30T09:38:04.881Z,97011.38
2018-09-30T09:40:33.243Z,97016.73
2018-09-30T09:43:01.555Z,97014.54
2018-09-30T09:45:29.889Z,97018.13
2018-09-30T09:47:58.215Z,97015.84
2018-09-30T09:50:26.546Z,97023.06
2018-09-30T09:52:54.859Z,97016.13
2018-09-30T09:55:23.231Z,97017.05
2018-09-30T09:57:51.575Z,97012.23
2018-09-30T10:00:25.315Z,96993.00
2018-09-30T10:02:53.708Z,96991.03
2018-09-30T10:05:22.058Z,96987.04
2018-09-30T10:07:50.411Z,96999.36
2018-09-30T10:10:18.865Z,96992.81
2018-09-30T10:12:47.412Z,96991.84
2018-09-30T10:15:15.748Z,96985.71
2018-09-30T10:17:44.108Z,96990.80
2018-09-30T10:20:12.512Z,96985.83
2018-09-30T10:22:40.839Z,96989.67
2018-09-30T10:25:09.308Z,96975.63
2018-09-30T10:27:37.667Z,96975.98
2018-09-30T10:30:06.119Z,96972.48
2018-09-30T10:32:34.432Z,96965.09
2018-09-30T10:35:02.904Z,96963.19
2018-09-30T10:37:31.235Z,96958.36
2018-09-30T10:39:59.621Z,96963.44
2018-09-30T10:42:28.383Z,96955.23
2018-09-30T10:44:56.719Z,96953.91
2018-09-30T10:47:25.170Z,96945.13
2018-09-30T10:49:53.611Z,96943.44
2018-09-30T10:52:21.975Z,96941.80
2018-09-30T10:54:50.323Z,96946.00
2018-09-30T10:57:18.863Z,96936.07
2018-09-30T10:59:47.331Z,96941.21
2018-09-30T11:02:15.703Z,96938.06
2018-09-30T11:04:44.221Z,96937.27
2018-09-30T11:07:13.503Z,96930.41
2018-09-30T11:09:41.967Z,96933.47
2018-09-30T11:12:10.246Z,96921.41
2018-09-30T11:14:38.672Z,96927.27
2018-09-30T11:17:07.360Z,96919.27
2018-09-30T11:19:36.163Z,96917.16
2018-09-30T11:22:04.507Z,96916.78
2018-09-30T11:24:32.876Z,96913.80
2018-09-30T11:27:01.219Z,96895.72
2018-09-30T11:29:29.769Z,96894.52
2018-09-30T11:31:58.230Z,96890.59
2018-09-30T11:34:26.567Z,96888.28
2018-09-30T11:36:55.095Z,96883.23
2018-09-30T11:39:23.440Z,96885.75
2018-09-30T11:41:51.764Z,96891.98
2018-09-30T11:44:20.091Z,96885.30
2018-09-30T11:46:48.439Z,96881.34
2018-09-30T11:49:16.751Z,96882.47
2018-09-30T11:51:45.460Z,96874.01
2018-09-30T11:54:13.791Z,96872.80
2018-09-30T11:56:43.582Z,96875.98
2018-09-30T11:59:12.459Z,96866.70
2018-09-30T12:01:41.187Z,96864.37
2018-09-30T12:04:09.543Z,96864.72
2018-09-30T12:06:38.003Z,96856.33
2018-09-30T12:09:07.971Z,96856.30
2018-09-30T12:11:36.311Z,96854.20
2018-09-30T12:14:04.687Z,96844.53
2018-09-30T12:16:33.107Z,96846.45
2018-09-30T12:19:01.439Z,96831.09
2018-09-30T12:21:29.791Z,96831.67
2018-09-30T12:23:58.083Z,96825.92
2018-09-30T12:26:26.465Z,96821.43
2018-09-30T12:28:54.807Z,96812.77
2018-09-30T12:31:23.211Z,96804.90
2018-09-30T12:33:51.739Z,96809.01
2018-09-30T12:36:20.174Z,96803.50
2018-09-30T12:38:48.523Z,96807.69
2018-09-30T12:41:16.874Z,96802.28
2018-09-30T12:43:45.187Z,96797.40
2018-09-30T12:46:13.988Z,96801.10
2018-09-30T12:48:42.331Z,96799.66
2018-09-30T12:51:10.842Z,96807.06
2018-09-30T12:53:39.218Z,96802.69
2018-09-30T12:56:07.983Z,96794.67
2018-09-30T12:58:36.715Z,96793.09
2018-09-30T13:01:05.459Z,96795.83
2018-09-30T13:03:34.651Z,96788.16
2018-09-30T13:06:02.956Z,96790.34
2018-09-30T13:08:31.400Z,96790.84
2018-09-30T13:10:59.707Z,96786.79
2018-09-30T13:13:27.981Z,96788.72
2018-09-30T13:15:56.299Z,96788.10
2018-09-30T13:18:24.636Z,96777.76
2018-09-30T13:20:52.997Z,96782.22
2018-09-30T13:23:21.227Z,96781.33
2018-09-30T13:25:49.527Z,96775.97
2018-09-30T13:28:17.811Z,96783.52
2018-09-30T13:30:46.104Z,96784.92
2018-09-30T13:33:14.403Z,96777.20
2018-09-30T13:35:42.723Z,96776.58
2018-09-30T13:38:11.007Z,96773.80
2018-09-30T13:40:39.509Z,96772.55
2018-09-30T13:43:07.727Z,96773.93
2018-09-30T13:45:36.041Z,96767.99
2018-09-30T13:48:04.335Z,96766.41
2018-09-30T13:50:32.627Z,96768.02
2018-09-30T13:53:01.092Z,96758.82
2018-09-30T13:55:29.443Z,96764.06
2018-09-30T13:57:57.794Z,96760.74
2018-09-30T14:00:26.091Z,96758.30
2018-09-30T14:02:54.451Z,96758.72
2018-09-30T14:05:22.767Z,96759.38
2018-09-30T14:07:51.135Z,96756.97
2018-09-30T14:10:20.127Z,96752.64
2018-09-30T14:12:48.423Z,96754.09
2018-09-30T14:15:16.735Z,96738.73
2018-09-30T14:17:45.060Z,96742.97
2018-09-30T14:20:13.400Z,96742.30
2018-09-30T14:22:41.920Z,96744.55
2018-09-30T14:25:10.222Z,96737.41
2018-09-30T14:27:38.540Z,96737.38
2018-09-30T14:30:06.899Z,96730.19
2018-09-30T14:32:35.376Z,96731.77
2018-09-30T14:35:03.859Z,96731.75
2018-09-30T14:37:32.194Z,96727.31
2018-09-30T14:40:00.504Z,96723.52
2018-09-30T14:42:29.143Z,96718.88
2018-09-30T14:44:57.447Z,96721.59
2018-09-30T14:47:26.310Z,96713.70
2018-09-30T14:49:54.671Z,96720.38
2018-09-30T14:52:23.615Z,96712.67
2018-09-30T14:54:51.899Z,96724.13
2018-09-30T14:57:20.208Z,96718.70
2018-09-30T14:59:48.529Z,96707.73
2018-09-30T15:02:16.805Z,96708.73
2018-09-30T15:04:45.191Z,96712.60
2018-09-30T15:07:13.565Z,96707.02
2018-09-30T15:09:41.836Z,96707.30
2018-09-30T15:12:10.167Z,96703.67
2018-09-30T15:14:38.480Z,96694.77
2018-09-30T15:17:06.767Z,96697.32
2018-09-30T15:19:35.083Z,96692.23
2018-09-30T15:22:03.395Z,96695.47
2018-09-30T15:24:31.675Z,96688.38
2018-09-30T15:26:59.959Z,96685.04
2018-09-30T15:29:28.391Z,96677.97
2018-09-30T15:31:56.667Z,96676.47
2018-09-30T15:34:24.981Z,96681.17
2018-09-30T15:36:53.276Z,96675.50
2018-09-30T15:39:21.579Z,96675.88
2018-09-30T15:41:49.858Z,96675.19
2018-09-30T15:44:18.162Z,96668.90
2018-09-30T15:46:46.482Z,96678.05
2018-09-30T15:49:15.255Z,96674.03
2018-09-30T15:51:43.568Z,96676.10
2018-09-30T15:54:11.859Z,96685.71
2018-09-30T15:56:40.132Z,96678.95
2018-09-30T15:59:08.443Z,96682.19
2018-09-30T16:01:36.711Z,96676.25
2018-09-30T16:04:05.047Z,96678.17
2018-09-30T16:06:33.339Z,96682.75
2018-09-30T16:09:01.655Z,96682.11
2018-09-30T16:11:29.951Z,96680.54
2018-09-30T16:13:58.266Z,96683.36
2018-09-30T16:16:26.543Z,96678.59
2018-09-30T16:18:54.851Z,96679.03
2018-09-30T16:21:23.154Z,96681.62
2018-09-30T16:23:51.463Z,96683.03
2018-09-30T16:26:19.755Z,96685.23
2018-09-30T16:28:48.059Z,96689.67
2018-09-30T16:31:16.366Z,96690.34
2018-09-30T16:33:44.806Z,96694.11
2018-09-30T16:36:13.251Z,96690.12
2018-09-30T16:38:41.571Z,96694.60
2018-09-30T16:41:09.856Z,96684.19
2018-09-30T16:43:38.236Z,96687.85
2018-09-30T16:46:06.726Z,96693.22
2018-09-30T16:48:35.047Z,96686.73
2018-09-30T16:51:03.332Z,96684.92
2018-09-30T16:53:31.651Z,96688.02
2018-09-30T16:55:59.923Z,96684.64
2018-09-30T16:58:28.203Z,96690.14
2018-09-30T17:00:56.508Z,96688.91
2018-09-30T17:03:24.818Z,96689.08
2018-09-30T17:05:53.127Z,96695.00
2018-09-30T17:08:21.415Z,96701.66
2018-09-30T17:10:49.728Z,96701.16
2018-09-30T17:13:18.062Z,96706.97
2018-09-30T17:15:46.367Z,96712.06
2018-09-30T17:18:14.673Z,96706.41
2018-09-30T17:20:43.024Z,96711.16
2018-09-30T17:23:11.316Z,96722.08
2018-09-30T17:25:39.935Z,96721.39
2018-09-30T17:28:08.220Z,96717.92
2018-09-30T17:30:36.553Z,96714.20
2018-09-30T17:33:04.840Z,96724.72
2018-09-30T17:35:33.156Z,96732.25
2018-09-30T17:38:01.531Z,96727.17
2018-09-30T17:40:29.779Z,96736.31
2018-09-30T17:42:58.079Z,96742.75
2018-09-30T17:45:26.383Z,96731.45
2018-09-30T17:47:55.124Z,96732.23
2018-09-30T17:50:23.436Z,96734.63
2018-09-30T17:52:51.752Z,96737.59
2018-09-30T17:55:20.079Z,96739.12
2018-09-30T17:57:48.387Z,96739.40
2018-09-30T18:00:17.631Z,96744.45
2018-09-30T18:02:45.916Z,96747.09
2018-09-30T18:05:14.247Z,96748.05
2018-09-30T18:07:42.567Z,96739.14
2018-09-30T18:10:10.891Z,96741.02
2018-09-30T18:12:39.191Z,96742.89
2018-09-30T18:15:07.529Z,96748.09
2018-09-30T18:17:35.827Z,96744.83
2018-09-30T18:20:04.143Z,96744.30
2018-09-30T18:22:32.900Z,96747.47
2018-09-30T18:25:01.220Z,96749.54
2018-09-30T18:27:29.675Z,96755.19
2018-09-30T18:29:58.113Z,96752.47
2018-09-30T18:32:26.411Z,96754.75
2018-09-30T18:34:54.731Z,96758.52
2018-09-30T18:37:23.629Z,96763.29
2018-09-30T18:39:53.342Z,96761.31
2018-09-30T18:42:22.011Z,96760.42
2018-09-30T18:44:50.854Z,96764.08
2018-09-30T18:47:19.365Z,96759.16
2018-09-30T18:49:47.699Z,96766.59
2018-09-30T18:52:16.012Z,96761.68
2018-09-30T18:54:44.374Z,96761.52
2018-09-30T18:57:13.003Z,96757.65
2018-09-30T18:59:41.868Z,96758.45
2018-09-30T19:02:10.643Z,96760.70
2018-09-30T19:04:40.146Z,96756.78
2018-09-30T19:07:08.538Z,96765.81
2018-09-30T19:09:36.879Z,96755.14
2018-09-30T19:12:05.252Z,96751.30
2018-09-30T19:14:33.536Z,96758.06
2018-09-30T19:17:01.831Z,96751.09
2018-09-30T19:19:30.120Z,96758.95
2018-09-30T19:21:58.423Z,96759.97
2018-09-30T19:24:26.724Z,96759.75
2018-09-30T19:26:55.052Z,96762.44
2018-09-30T19:29:23.340Z,96763.12
2018-09-30T19:31:51.884Z,96760.98
2018-09-30T19:34:20.163Z,96763.77
2018-09-30T19:36:48.455Z,96767.42
2018-09-30T19:39:16.736Z,96767.94
2018-09-30T19:41:45.106Z,96768.44
2018-09-30T19:44:13.331Z,96766.12
2018-09-30T19:46:41.657Z,96767.16
2018-09-30T19:49:09.952Z,96772.00
2018-09-30T19:51:38.247Z,96773.71
2018-09-30T19:54:06.569Z,96764.66
2018-09-30T19:56:34.860Z,96762.06
2018-09-30T19:59:03.387Z,96767.17
2018-09-30T20:01:31.724Z,96766.36
2018-09-30T20:03:59.996Z,96762.98
2018-09-30T20:06:28.291Z,96765.00
2018-09-30T20:08:56.634Z,96764.55
2018-09-30T20:11:24.915Z,96775.47
2018-09-30T20:13:53.202Z,96770.49
2018-09-30T20:16:21.505Z,96759.22
2018-09-30T20:18:49.802Z,96760.52
2018-09-30T20:21:18.121Z,96762.11
2018-09-30T20:23:46.431Z,96766.03
2018-09-30T20:26:14.751Z,96762.09
2018-09-30T20:28:43.116Z,96765.22
2018-09-30T20:31:11.739Z,96755.80
2018-09-30T20:33:40.039Z,96752.68
2018-09-30T20:36:08.339Z,96758.59
2018-09-30T20:38:36.632Z,96755.09
2018-09-30T20:41:04.931Z,96756.66
2018-09-30T20:43:33.755Z,96760.14
2018-09-30T20:46:02.308Z,96756.42
2018-09-30T20:48:30.611Z,96753.47
2018-09-30T20:50:59.121Z,96754.55
2018-09-30T20:53:27.406Z,96752.65
2018-09-30T20:55:55.748Z,96748.59
2018-09-30T20:58:24.048Z,96755.05
2018-09-30T21:00:52.451Z,96757.98
2018-09-30T21:03:20.754Z,96753.03
2018-09-30T21:06:21.827Z,96753.46
2018-09-30T21:08:50.107Z,96752.31
2018-09-30T21:11:18.435Z,96745.78
2018-09-30T21:13:46.711Z,96753.87
2018-09-30T21:16:15.279Z,96753.98
2018-09-30T21:18:43.921Z,96757.16
2018-09-30T21:21:12.243Z,96766.27
2018-09-30T21:23:40.580Z,96762.40
2018-09-30T21:26:08.915Z,96767.41
2018-09-30T21:28:37.247Z,96758.43
2018-09-30T21:31:05.718Z,96758.53
2018-09-30T21:33:33.999Z,96767.23
2018-09-30T21:36:02.324Z,96759.82
2018-09-30T21:38:30.603Z,96758.61
2018-09-30T21:40:58.902Z,96754.86
2018-09-30T21:43:27.198Z,96757.08
2018-09-30T21:45:55.507Z,96756.70
2018-09-30T21:48:23.792Z,96758.66
2018-09-30T21:50:52.051Z,96754.64
2018-09-30T21:53:20.356Z,96759.38
2018-09-30T21:55:48.647Z,96754.61
2018-09-30T21:58:16.959Z,96753.31
2018-09-30T22:00:50.368Z,96739.97
2018-09-30T22:03:18.704Z,96738.34
2018-09-30T22:05:46.994Z,96739.64
2018-09-30T22:08:15.307Z,96745.63
2018-09-30T22:10:43.576Z,96741.91
2018-09-30T22:13:12.699Z,96729.95
2018-09-30T22:15:41.370Z,96735.84
2018-09-30T22:18:09.699Z,96727.16
2018-09-30T22:20:38.011Z,96725.24
2018-09-30T22:23:06.528Z,96721.33
2018-09-30T22:25:34.819Z,96727.59
2018-09-30T22:28:03.128Z,96725.01
2018-09-30T22:30:31.963Z,96730.05
2018-09-30T22:33:00.342Z,96734.45
2018-09-30T22:35:28.655Z,96730.30
2018-09-30T22:37:56.939Z,96725.35
2018-09-30T22:40:25.426Z,96730.12
2018-09-30T22:42:53.690Z,96727.53
2018-09-30T22:45:21.976Z,96728.16
2018-09-30T22:47:50.279Z,96731.01
2018-09-30T22:50:18.663Z,96728.81
2018-09-30T22:52:46.947Z,96725.41
2018-09-30T22:55:15.231Z,96722.90
2018-09-30T22:57:43.545Z,96725.56
2018-09-30T23:00:11.852Z,96720.31
2018-09-30T23:02:40.155Z,96727.78
2018-09-30T23:05:09.364Z,96728.59
2018-09-30T23:07:37.711Z,96730.60
2018-09-30T23:10:08.503Z,96732.16
2018-09-30T23:12:36.811Z,96728.46
2018-09-30T23:15:05.151Z,96725.41
2018-09-30T23:17:33.467Z,96722.90
2018-09-30T23:20:01.855Z,96719.57
2018-09-30T23:22:30.140Z,96723.95
2018-09-30T23:24:58.473Z,96729.68
2018-09-30T23:27:26.765Z,96732.97
2018-09-30T23:29:55.036Z,96730.08
2018-09-30T23:32:23.347Z,96738.61
2018-09-30T23:34:51.607Z,96735.16
2018-09-30T23:37:19.895Z,96740.27
2018-09-30T23:39:48.213Z,96738.75
2018-09-30T23:42:16.575Z,96743.41
2018-09-30T23:44:45.003Z,96744.34
2018-09-30T23:47:13.331Z,96745.59
2018-09-30T23:49:41.659Z,96742.11
2018-09-30T23:52:09.991Z,96744.31
2018-09-30T23:54:38.666Z,96745.02
2018-09-30T23:57:07.050Z,96741.16
2018-09-30T23:59:35.376Z,96739.17
